Etusivu
METAR-TAF:

METAR-TAF

Lentoasemat :

San Angelo Regional Airport (Mathis Field)

San Angelo, Texas, Yhdysvallat

Leveyspiiri: 31-21-05N, Pituuspiiri: 100-29-38W, korkeus merenpinnasta: 584 m

Tämänhetkinen sää

Tämä raportti tehtiin 29 minuuttia sitten, kello 01.51 UTC
tyyntä
Lämpötila 15°C
Kosteus 48%
Ilmanpaine 1007 hPa
Näkyvyys: 16.1 km
selkeää

METAR: KSJT 150151Z 00000KT 10SM CLR 15/04 A2973 RMK AO2 SLP064 T01500044

Aika: 20:20 (02:20 UTC)

Sääennuste

Tämä raportti tehtiin 2 tuntia ja 58 minuuttia sitten, kello 23.22 UTC
Ennuste voimassa 15. päivästä klo 00 UTC - 15. päivään klo 24 UTC
Tuuli 5 kn lounaasta
Näkyvyys: 10 km
selkeää
From 15. päivästä klo 1700 UTC
Tuuli 10 kn lännestä
Näkyvyys: 10 km
Muutamia pilviä 25000 ft:n korkeudessa

TAF: KSJT 142322Z 1500/1524 22005KT P6SM SKC FM151700 28010KT P6SM FEW250

Säähavainnot ja -ennusteet yli 4000 lentoasemalta (METAR- ja TAF-raportit).

Käytössä olevat sääasemat on merkitty karttaan keltaisilla ja punaisilla pisteillä.

Aseta hiiri pisteen päälle nähdäksesi sääaseman nimen.

Klikkaa sitten nähdäksesi säähavainnot ja -ennusteet.

Kartan vaihtaminen: klikkaa mustalla rastilla varustettuja vihreitä pisteitä, niin voit zoomata sisään; viivalla varustettua vihreää pistettä, niin voit zoomata ulos tai vihreitä nuolia, niin pääset viereisille kartoille.


METAR-TAF: